createdAt,value
2023-06-04T00:00:00.567Z,2.40
2023-06-04T00:03:03.362Z,2.10
2023-06-04T00:06:06.044Z,2.00
2023-06-04T00:09:08.689Z,2.00
2023-06-04T00:12:11.364Z,1.75
2023-06-04T00:15:16.450Z,1.80
2023-06-04T00:18:19.075Z,2.27
2023-06-04T00:21:22.757Z,1.63
2023-06-04T00:24:25.400Z,1.98
2023-06-04T00:27:28.022Z,1.90
2023-06-04T00:30:30.733Z,2.40
2023-06-04T00:33:33.857Z,2.07
2023-06-04T00:36:36.521Z,2.30
2023-06-04T00:39:39.120Z,2.50
2023-06-04T00:42:41.768Z,2.30
2023-06-04T00:45:44.631Z,2.00
2023-06-04T00:48:47.350Z,1.70
2023-06-04T00:51:50.273Z,2.05
2023-06-04T00:54:53.465Z,1.77
2023-06-04T00:57:56.183Z,1.90
2023-06-04T01:01:00.985Z,1.83
2023-06-04T01:04:06.162Z,1.83
2023-06-04T01:07:10.249Z,1.90
2023-06-04T01:10:13.187Z,2.00
2023-06-04T01:13:15.977Z,2.03
2023-06-04T01:16:18.667Z,1.80
2023-06-04T01:19:52.501Z,1.87
2023-06-04T01:23:03.607Z,1.77
2023-06-04T01:26:06.610Z,1.80
2023-06-04T01:29:09.344Z,1.63
2023-06-04T01:32:12.156Z,1.53
2023-06-04T01:35:14.872Z,1.40
2023-06-04T01:38:17.672Z,1.30
2023-06-04T01:41:20.561Z,1.40
2023-06-04T01:44:23.591Z,1.70
2023-06-04T01:47:26.597Z,1.60
2023-06-04T01:50:29.265Z,1.23
2023-06-04T01:53:32.359Z,2.03
2023-06-04T01:56:34.999Z,1.48
2023-06-04T01:59:40.355Z,1.52
2023-06-04T02:02:46.944Z,1.50
2023-06-04T02:05:51.151Z,2.00
2023-06-04T02:08:55.351Z,1.50
2023-06-04T02:11:58.283Z,1.40
2023-06-04T02:15:01.257Z,1.35
2023-06-04T02:18:19.018Z,2.00
2023-06-04T02:21:21.927Z,1.90
2023-06-04T02:24:24.577Z,1.63
2023-06-04T02:27:27.139Z,1.40
2023-06-04T02:30:29.869Z,1.40
2023-06-04T02:33:32.581Z,1.77
2023-06-04T02:36:35.630Z,1.57
2023-06-04T02:39:38.213Z,1.30
2023-06-04T02:42:41.370Z,1.27
2023-06-04T02:45:44.073Z,1.50
2023-06-04T02:48:47.084Z,1.53
2023-06-04T02:51:49.617Z,2.43
2023-06-04T02:54:52.964Z,1.40
2023-06-04T02:57:55.545Z,1.63
2023-06-04T03:00:58.260Z,1.65
2023-06-04T03:04:04.940Z,1.80
2023-06-04T03:07:09.281Z,1.27
2023-06-04T03:10:13.208Z,1.70
2023-06-04T03:13:16.419Z,1.88
2023-06-04T03:16:19.176Z,1.20
2023-06-04T03:19:21.902Z,1.50
2023-06-04T03:22:24.852Z,2.00
2023-06-04T03:25:27.605Z,1.85
2023-06-04T03:28:31.884Z,1.30
2023-06-04T03:31:36.158Z,2.58
2023-06-04T03:34:38.941Z,1.80
2023-06-04T03:37:41.564Z,1.93
2023-06-04T03:40:45.228Z,1.77
2023-06-04T03:43:48.064Z,1.88
2023-06-04T03:46:50.916Z,3.28
2023-06-04T03:49:54.840Z,3.00
2023-06-04T03:52:57.880Z,2.87
2023-06-04T03:56:01.224Z,2.45
2023-06-04T03:59:05.348Z,1.98
2023-06-04T04:02:08.709Z,2.13
2023-06-04T04:05:13.275Z,2.93
2023-06-04T04:08:17.906Z,2.83
2023-06-04T04:11:21.823Z,2.13
2023-06-04T04:14:24.639Z,2.25
2023-06-04T04:17:27.617Z,1.80
2023-06-04T04:20:30.854Z,1.60
2023-06-04T04:23:43.358Z,1.70
2023-06-04T04:26:47.633Z,2.15
2023-06-04T04:29:50.504Z,1.50
2023-06-04T04:32:53.214Z,1.80
2023-06-04T04:36:15.247Z,1.90
2023-06-04T04:39:26.930Z,2.00
2023-06-04T04:42:32.579Z,1.58
2023-06-04T04:45:36.860Z,2.00
2023-06-04T04:48:43.560Z,1.63
2023-06-04T04:51:46.334Z,1.87
2023-06-04T04:54:49.219Z,2.07
2023-06-04T04:57:52.272Z,1.52
2023-06-04T05:00:56.179Z,1.52
2023-06-04T05:03:59.520Z,1.52
2023-06-04T05:07:03.477Z,1.70
2023-06-04T05:10:06.655Z,2.07
2023-06-04T05:13:12.353Z,1.40
2023-06-04T05:16:23.926Z,1.95
2023-06-04T05:19:26.972Z,1.83
2023-06-04T05:22:30.223Z,2.13
2023-06-04T05:25:33.143Z,1.87
2023-06-04T05:28:39.875Z,1.52
2023-06-04T05:31:43.074Z,1.60
2023-06-04T05:34:48.426Z,2.45
2023-06-04T05:37:55.247Z,1.83
2023-06-04T05:41:02.197Z,2.03
2023-06-04T05:44:09.158Z,1.90
2023-06-04T05:47:11.912Z,1.50
2023-06-04T05:50:14.865Z,1.50
2023-06-04T05:53:17.548Z,1.53
2023-06-04T05:56:22.941Z,1.50
2023-06-04T05:59:26.305Z,1.67
2023-06-04T06:02:29.188Z,1.70
2023-06-04T06:05:32.051Z,1.73
2023-06-04T06:08:35.110Z,1.90
2023-06-04T06:11:38.099Z,1.90
2023-06-04T06:14:41.193Z,1.73
2023-06-04T06:17:43.942Z,1.30
2023-06-04T06:20:47.215Z,1.77
2023-06-04T06:23:49.972Z,1.53
2023-06-04T06:26:53.013Z,1.77
2023-06-04T06:29:55.764Z,1.77
2023-06-04T06:32:58.767Z,1.75
2023-06-04T06:36:01.411Z,2.20
2023-06-04T06:39:04.580Z,2.20
2023-06-04T06:42:07.320Z,1.87
2023-06-04T06:45:14.487Z,1.77
2023-06-04T06:48:17.189Z,1.45
2023-06-04T06:51:19.944Z,1.95
2023-06-04T06:54:23.006Z,1.60
2023-06-04T06:57:25.741Z,1.80
2023-06-04T07:00:29.322Z,1.70
2023-06-04T07:03:32.564Z,1.60
2023-06-04T07:06:37.011Z,1.35
2023-06-04T07:09:39.640Z,1.80
2023-06-04T07:12:43.754Z,1.43
2023-06-04T07:15:46.605Z,1.55
2023-06-04T07:18:52.401Z,1.90
2023-06-04T07:21:56.904Z,1.90
2023-06-04T07:24:59.704Z,2.23
2023-06-04T07:28:05.070Z,2.67
2023-06-04T07:31:08.068Z,1.88
2023-06-04T07:34:10.900Z,2.03
2023-06-04T07:37:15.091Z,1.80
2023-06-04T07:40:18.559Z,1.63
2023-06-04T07:43:21.303Z,2.00
2023-06-04T07:46:23.927Z,1.80
2023-06-04T07:49:26.595Z,2.03
2023-06-04T07:52:29.352Z,1.90
2023-06-04T07:55:33.105Z,1.63
2023-06-04T07:58:35.810Z,2.00
2023-06-04T08:01:38.426Z,1.75
2023-06-04T08:04:41.361Z,1.70
2023-06-04T08:07:44.528Z,1.77
2023-06-04T08:10:47.271Z,2.17
2023-06-04T08:13:50.326Z,1.93
2023-06-04T08:16:53.077Z,2.60
2023-06-04T08:19:57.093Z,1.80
2023-06-04T08:22:59.742Z,1.63
2023-06-04T08:26:02.952Z,2.20
2023-06-04T08:29:05.764Z,1.77
2023-06-04T08:32:09.129Z,2.30
2023-06-04T08:35:11.990Z,2.33
2023-06-04T08:38:14.684Z,2.15
2023-06-04T08:41:30.769Z,1.93
2023-06-04T08:44:33.698Z,1.70
2023-06-04T08:47:36.982Z,5.43
2023-06-04T08:50:41.685Z,2.08
2023-06-04T08:53:45.118Z,1.70
2023-06-04T08:56:50.233Z,1.87
2023-06-04T08:59:52.926Z,2.13
2023-06-04T09:02:56.169Z,2.15
2023-06-04T09:05:59.643Z,2.90
2023-06-04T09:09:08.582Z,2.20
2023-06-04T09:12:13.142Z,2.20
2023-06-04T09:15:16.076Z,2.60
2023-06-04T09:18:18.653Z,2.00
2023-06-04T09:21:22.026Z,2.17
2023-06-04T09:24:26.734Z,2.53
2023-06-04T09:27:38.316Z,2.17
2023-06-04T09:30:51.579Z,2.33
2023-06-04T09:33:54.217Z,1.95
2023-06-04T09:36:57.761Z,2.42
2023-06-04T09:40:00.925Z,2.47
2023-06-04T09:43:03.861Z,2.03
2023-06-04T09:46:14.182Z,2.50
2023-06-04T09:49:17.673Z,2.00
2023-06-04T09:52:22.411Z,2.25
2023-06-04T09:55:25.170Z,2.38
2023-06-04T09:58:28.562Z,2.27
2023-06-04T10:01:31.641Z,2.67
2023-06-04T10:04:36.158Z,2.22
2023-06-04T10:07:39.778Z,2.25
2023-06-04T10:10:42.531Z,1.75
2023-06-04T10:13:49.507Z,2.67
2023-06-04T10:16:55.433Z,2.13
2023-06-04T10:19:59.461Z,2.38
2023-06-04T10:23:02.485Z,2.70
2023-06-04T10:26:05.196Z,2.70
2023-06-04T10:29:07.975Z,2.33
2023-06-04T10:32:10.721Z,2.30
2023-06-04T10:35:15.627Z,2.97
2023-06-04T10:38:20.123Z,1.77
2023-06-04T10:41:24.518Z,2.50
2023-06-04T10:44:27.196Z,2.50
2023-06-04T10:47:35.199Z,2.13
2023-06-04T10:50:51.181Z,2.70
2023-06-04T10:53:53.783Z,2.47
2023-06-04T10:56:57.889Z,2.03
2023-06-04T11:00:01.748Z,2.73
2023-06-04T11:03:09.822Z,3.10
2023-06-04T11:06:19.169Z,2.53
2023-06-04T11:09:21.867Z,2.63
2023-06-04T11:12:24.599Z,2.70
2023-06-04T11:15:27.307Z,2.93
2023-06-04T11:18:30.095Z,2.80
2023-06-04T11:21:37.600Z,2.95
2023-06-04T11:24:40.261Z,3.08
2023-06-04T11:27:42.919Z,2.65
2023-06-04T11:30:56.830Z,3.10
2023-06-04T11:34:02.139Z,2.80
2023-06-04T11:37:11.294Z,2.55
2023-06-04T11:40:21.574Z,2.78
2023-06-04T11:43:24.684Z,3.20
2023-06-04T11:46:27.393Z,3.17
2023-06-04T11:49:30.058Z,3.23
2023-06-04T11:52:34.409Z,3.22
2023-06-04T11:55:39.122Z,3.92
2023-06-04T11:58:42.913Z,3.15
2023-06-04T12:01:47.123Z,3.10
2023-06-04T12:04:49.763Z,3.80
2023-06-04T12:07:52.962Z,3.60
2023-06-04T12:10:55.744Z,3.33
2023-06-04T12:14:07.857Z,3.20
2023-06-04T12:17:10.659Z,3.30
2023-06-04T12:20:13.260Z,3.10
2023-06-04T12:23:22.696Z,2.92
2023-06-04T12:26:29.974Z,3.22
2023-06-04T12:29:32.853Z,2.63
2023-06-04T12:32:38.691Z,2.53
2023-06-04T12:35:41.356Z,3.03
2023-06-04T12:38:44.855Z,2.90
2023-06-04T12:41:48.732Z,2.80
2023-06-04T12:44:51.345Z,2.60
2023-06-04T12:47:54.081Z,2.97
2023-06-04T12:50:56.756Z,2.63
2023-06-04T12:53:59.628Z,2.55
2023-06-04T12:57:04.711Z,2.83
2023-06-04T13:00:08.600Z,3.03
2023-06-04T13:03:11.365Z,2.70
2023-06-04T13:06:14.043Z,2.57
2023-06-04T13:09:17.454Z,2.28
2023-06-04T13:12:20.135Z,3.20
2023-06-04T13:15:23.394Z,3.88
2023-06-04T13:18:26.119Z,3.30
2023-06-04T13:21:28.830Z,3.87
2023-06-04T13:24:31.674Z,3.50
2023-06-04T13:27:34.447Z,4.07
2023-06-04T13:30:41.423Z,3.25
2023-06-04T13:33:44.024Z,2.90
2023-06-04T13:36:46.669Z,2.40
2023-06-04T13:39:49.201Z,3.25
2023-06-04T13:42:51.843Z,3.53
2023-06-04T13:45:54.474Z,2.75
2023-06-04T13:48:57.958Z,2.97
2023-06-04T13:52:00.658Z,4.07
2023-06-04T13:55:03.415Z,3.15
2023-06-04T13:58:06.493Z,2.78
2023-06-04T14:01:09.387Z,3.03
2023-06-04T14:04:12.763Z,2.90
2023-06-04T14:07:15.418Z,3.30
2023-06-04T14:10:18.139Z,3.05
2023-06-04T14:13:20.962Z,3.25
2023-06-04T14:16:23.794Z,3.40
2023-06-04T14:19:26.448Z,2.77
2023-06-04T14:22:29.058Z,3.07
2023-06-04T14:25:33.849Z,3.17
2023-06-04T14:28:36.618Z,2.70
2023-06-04T14:31:39.286Z,2.75
2023-06-04T14:34:42.007Z,3.27
2023-06-04T14:37:44.714Z,2.83
2023-06-04T14:40:47.399Z,2.88
2023-06-04T14:43:50.064Z,2.83
2023-06-04T14:46:52.993Z,2.67
2023-06-04T14:49:55.662Z,3.67
2023-06-04T14:52:58.365Z,3.90
2023-06-04T14:56:01.165Z,4.32
2023-06-04T14:59:06.644Z,3.55
2023-06-04T15:02:09.406Z,3.70
2023-06-04T15:05:12.101Z,2.67
2023-06-04T15:08:14.820Z,3.57
2023-06-04T15:11:17.556Z,3.42
2023-06-04T15:14:20.209Z,3.35
2023-06-04T15:17:23.056Z,4.65
2023-06-04T15:20:28.577Z,3.63
2023-06-04T15:23:31.403Z,3.30
2023-06-04T15:26:34.109Z,2.95
2023-06-04T15:29:36.867Z,3.03
2023-06-04T15:32:39.577Z,3.50
2023-06-04T15:35:42.238Z,3.00
2023-06-04T15:38:44.919Z,3.10
2023-06-04T15:41:47.547Z,2.67
2023-06-04T15:44:50.241Z,3.65
2023-06-04T15:47:53.160Z,2.80
2023-06-04T15:50:55.911Z,3.23
2023-06-04T15:53:59.357Z,2.50
2023-06-04T15:57:02.603Z,2.80
2023-06-04T16:00:05.757Z,2.65
2023-06-04T16:03:08.300Z,3.42
2023-06-04T16:06:11.857Z,3.07
2023-06-04T16:09:14.504Z,2.93
2023-06-04T16:12:17.236Z,3.28
2023-06-04T16:15:19.999Z,3.22
2023-06-04T16:18:23.098Z,3.15
2023-06-04T16:21:27.136Z,3.47
2023-06-04T16:24:29.804Z,2.90
2023-06-04T16:27:33.131Z,2.85
2023-06-04T16:30:36.192Z,3.10
2023-06-04T16:33:38.805Z,3.17
2023-06-04T16:36:43.048Z,2.90
2023-06-04T16:39:45.734Z,2.87
2023-06-04T16:42:48.461Z,2.70
2023-06-04T16:45:51.306Z,2.20
2023-06-04T16:48:53.943Z,3.28
2023-06-04T16:51:56.644Z,2.80
2023-06-04T16:55:00.392Z,2.67
2023-06-04T16:58:03.120Z,2.72
2023-06-04T17:01:06.559Z,2.72
2023-06-04T17:04:09.154Z,2.88
2023-06-04T17:07:11.971Z,2.33
2023-06-04T17:10:14.628Z,2.23
2023-06-04T17:13:17.398Z,2.35
2023-06-04T17:16:20.134Z,2.30
2023-06-04T17:19:22.973Z,3.70
2023-06-04T17:22:26.014Z,2.93
2023-06-04T17:25:29.881Z,2.80
2023-06-04T17:28:32.605Z,2.30
2023-06-04T17:31:35.290Z,2.38
2023-06-04T17:34:38.255Z,2.85
2023-06-04T17:37:41.002Z,2.40
2023-06-04T17:40:43.673Z,2.47
2023-06-04T17:43:46.538Z,2.15
2023-06-04T17:46:49.188Z,3.00
2023-06-04T17:49:51.838Z,2.25
2023-06-04T17:52:54.518Z,2.10
2023-06-04T17:56:00.134Z,2.83
2023-06-04T17:59:06.956Z,2.33
2023-06-04T18:02:09.725Z,1.98
2023-06-04T18:05:12.528Z,2.25
2023-06-04T18:08:15.456Z,2.43
2023-06-04T18:11:18.719Z,2.37
2023-06-04T18:14:21.587Z,2.40
2023-06-04T18:17:24.160Z,2.28
2023-06-04T18:20:26.898Z,2.70
2023-06-04T18:23:29.600Z,2.87
2023-06-04T18:26:32.224Z,2.90
2023-06-04T18:29:34.841Z,2.70
2023-06-04T18:32:37.767Z,2.42
2023-06-04T18:35:40.528Z,1.98
2023-06-04T18:38:43.179Z,3.00
2023-06-04T18:41:47.452Z,2.80
2023-06-04T18:44:50.078Z,2.55
2023-06-04T18:47:52.739Z,2.47
2023-06-04T18:50:55.402Z,2.65
2023-06-04T18:53:58.131Z,2.63
2023-06-04T18:57:01.094Z,2.60
2023-06-04T19:00:08.703Z,2.60
2023-06-04T19:03:11.555Z,3.35
2023-06-04T19:06:14.308Z,2.60
2023-06-04T19:09:17.048Z,2.80
2023-06-04T19:12:19.729Z,3.00
2023-06-04T19:15:22.606Z,2.90
2023-06-04T19:18:25.355Z,3.03
2023-06-04T19:21:28.214Z,2.95
2023-06-04T19:24:30.898Z,3.13
2023-06-04T19:27:33.630Z,3.20
2023-06-04T19:30:36.400Z,3.20
2023-06-04T19:33:39.182Z,3.33
2023-06-04T19:36:42.035Z,3.03
2023-06-04T19:39:44.666Z,2.80
2023-06-04T19:42:47.328Z,3.40
2023-06-04T19:45:57.851Z,2.53
2023-06-04T19:49:00.695Z,2.40
2023-06-04T19:52:03.669Z,2.80
2023-06-04T19:55:09.133Z,2.87
2023-06-04T19:58:12.102Z,2.77
2023-06-04T20:01:14.872Z,2.70
2023-06-04T20:04:17.678Z,2.90
2023-06-04T20:07:21.054Z,2.42
2023-06-04T20:10:25.536Z,2.90
2023-06-04T20:13:28.251Z,3.43
2023-06-04T20:16:31.125Z,3.13
2023-06-04T20:19:33.753Z,2.53
2023-06-04T20:22:36.502Z,2.55
2023-06-04T20:25:39.218Z,2.83
2023-06-04T20:28:41.886Z,2.40
2023-06-04T20:31:44.561Z,2.50
2023-06-04T20:34:47.169Z,2.80
2023-06-04T20:37:50.182Z,2.90
2023-06-04T20:40:52.769Z,2.90
2023-06-04T20:43:56.311Z,3.03
2023-06-04T20:46:59.006Z,2.67
2023-06-04T20:50:01.743Z,2.57
2023-06-04T20:53:04.486Z,2.97
2023-06-04T20:56:07.358Z,3.03
2023-06-04T20:59:10.236Z,2.70
2023-06-04T21:02:15.830Z,2.83
2023-06-04T21:05:18.617Z,3.17
2023-06-04T21:08:21.656Z,2.80
2023-06-04T21:11:24.423Z,2.78
2023-06-04T21:14:27.014Z,2.80
2023-06-04T21:17:32.017Z,3.17
2023-06-04T21:20:35.705Z,3.07
2023-06-04T21:23:38.526Z,2.70
2023-06-04T21:26:41.568Z,2.60
2023-06-04T21:29:44.245Z,3.28
2023-06-04T21:32:47.000Z,3.00
2023-06-04T21:35:49.656Z,2.80
2023-06-04T21:38:52.333Z,3.40
2023-06-04T21:41:54.996Z,3.00
2023-06-04T21:44:57.671Z,3.33
2023-06-04T21:48:03.674Z,3.13
2023-06-04T21:51:07.623Z,3.10
2023-06-04T21:54:11.108Z,3.03
2023-06-04T21:57:13.810Z,2.83
2023-06-04T22:00:17.110Z,3.40
2023-06-04T22:03:19.824Z,4.07
2023-06-04T22:06:22.930Z,3.43
2023-06-04T22:09:25.631Z,3.17
2023-06-04T22:12:28.686Z,2.80
2023-06-04T22:15:31.487Z,3.05
2023-06-04T22:18:48.120Z,4.05
2023-06-04T22:21:55.259Z,3.10
2023-06-04T22:24:57.820Z,3.10
2023-06-04T22:28:00.560Z,2.80
2023-06-04T22:31:03.222Z,3.20
2023-06-04T22:34:06.288Z,3.15
2023-06-04T22:37:08.965Z,3.60
2023-06-04T22:40:14.424Z,3.50
2023-06-04T22:43:17.136Z,3.55
2023-06-04T22:46:19.835Z,4.10
2023-06-04T22:49:22.638Z,3.90
2023-06-04T22:52:27.043Z,3.50
2023-06-04T22:55:29.803Z,3.83
2023-06-04T22:58:32.491Z,3.55
2023-06-04T23:01:35.233Z,4.75
2023-06-04T23:04:37.959Z,4.65
2023-06-04T23:07:42.183Z,4.10
2023-06-04T23:10:45.446Z,4.37
2023-06-04T23:13:48.012Z,3.67
2023-06-04T23:16:50.858Z,4.05
2023-06-04T23:19:53.658Z,4.13
2023-06-04T23:22:56.440Z,4.20
2023-06-04T23:25:59.203Z,4.00
2023-06-04T23:29:02.848Z,4.40
2023-06-04T23:32:05.894Z,4.45
2023-06-04T23:35:09.059Z,4.30
2023-06-04T23:38:12.096Z,4.10
2023-06-04T23:41:14.803Z,3.83
2023-06-04T23:44:18.371Z,4.32
2023-06-04T23:47:21.181Z,4.13
2023-06-04T23:50:23.838Z,6.22
2023-06-04T23:53:27.082Z,4.23
2023-06-04T23:56:29.799Z,4.47
2023-06-04T23:59:32.526Z,4.38
